Date,TemperatureHighF,TemperatureAvgF,TemperatureLowF,DewpointHighF,DewpointAvgF,DewpointLowF,HumidityHigh,HumidityAvg,HumidityLow,PressureMaxIn,PressureMinIn,WindSpeedMaxMPH,WindSpeedAvgMPH,GustSpeedMaxMPH,PrecipitationSumIn
2013-1-1,45.4,38.1,32.8,34.8,30.9,27.0,87,75,55,30.29,30.21,10,2,0,0.00
2013-1-2,52.7,43.1,37.3,30.7,23.2,10.7,72,46,29,30.29,30.14,12,3,0,0.00
2013-1-3,55.0,45.8,38.0,34.6,27.4,16.0,66,49,31,30.25,30.15,10,3,0,0.00
2013-1-4,54.4,46.9,41.8,34.7,26.9,16.4,65,46,31,30.26,30.17,9,2,0,0.00
2013-1-5,53.2,46.6,37.0,35.9,26.7,19.7,87,47,29,30.24,30.04,16,4,18,0.00
2013-1-6,42.1,36.0,33.9,37.9,33.6,27.2,96,91,62,30.15,30.03,18,4,24,0.15
2013-1-7,47.6,38.5,32.3,38.2,30.0,19.3,97,74,41,30.25,30.13,12,3,15,0.00
2013-1-8,54.9,47.1,31.8,42.0,36.9,30.8,97,69,44,30.25,30.16,9,2,0,0.00
2013-1-9,58.6,49.1,30.4,38.4,32.2,25.6,96,57,29,30.17,29.86,18,5,22,0.11
2013-1-10,37.1,30.3,27.5,30.7,26.6,21.7,96,86,73,30.17,29.92,14,3,17,0.13
2013-1-11,38.4,30.3,25.6,27.0,22.9,16.5,84,74,53,30.24,30.14,11,3,14,0.06
2013-1-12,38.2,29.9,24.3,25.4,16.3,6.4,89,59,33,30.25,30.15,16,4,17,0.00
2013-1-13,38.2,30.5,25.7,23.9,16.6,1.8,74,57,33,30.25,30.16,14,4,17,0.00
2013-1-14,41.1,31.4,27.1,25.5,20.3,2.2,86,64,33,30.42,30.21,10,2,0,0.00
2013-1-15,46.7,37.7,27.8,30.0,25.1,19.1,85,62,38,30.51,30.42,8,2,0,0.00
2013-1-16,57.6,49.3,42.7,30.1,23.7,15.4,49,37,23,30.46,30.26,7,2,0,0.00
2013-1-17,62.2,54.7,50.5,30.0,20.4,4.9,44,27,13,30.26,30.15,9,3,0,0.00
2013-1-18,64.1,54.4,49.8,29.3,21.5,12.5,41,28,17,30.21,30.11,9,3,0,0.00
2013-1-19,64.4,56.6,50.5,29.5,15.9,-3.1,37,21,9,30.23,30.14,10,2,0,0.00
2013-1-20,63.2,55.2,48.3,34.1,17.2,-0.3,57,26,10,30.20,30.08,10,3,0,0.00
2013-1-21,64.6,56.9,51.2,27.9,18.6,2.5,33,23,11,30.15,30.08,9,2,0,0.00
2013-1-22,65.5,57.8,52.6,24.2,16.5,8.3,27,20,13,30.12,30.02,16,5,16,0.00
2013-1-23,62.1,56.7,51.2,39.6,20.4,7.4,62,27,13,30.06,29.97,23,6,25,0.00
2013-1-24,53.6,50.3,48.0,49.2,45.3,38.3,97,84,58,30.17,30.00,20,3,25,0.44
2013-1-25,57.7,51.0,44.4,52.7,48.7,43.6,98,92,79,30.17,30.00,10,2,0,0.01
2013-1-26,51.0,44.0,35.1,48.1,42.9,33.8,98,96,85,30.01,29.93,11,2,0,0.02
2013-1-27,45.8,35.1,28.5,37.8,31.0,20.8,98,85,58,30.11,29.98,10,3,13,0.00
2013-1-28,44.6,37.4,30.8,31.5,23.1,12.3,76,57,40,30.26,30.11,11,4,14,0.00
2013-1-29,49.6,41.1,35.1,36.2,30.8,24.7,85,67,49,30.31,30.24,10,3,13,0.00
2013-1-30,58.2,48.9,38.2,42.0,35.5,28.0,80,60,44,30.36,30.26,11,2,13,0.00
2013-1-31,62.6,53.1,45.8,39.6,34.5,26.6,67,49,36,30.27,30.17,9,2,0,0.00